createdAt,value
2023-05-10T00:00:36.886Z,6.56
2023-05-10T00:10:46.581Z,6.39
2023-05-10T00:20:49.945Z,7.64
2023-05-10T00:30:52.252Z,8.53
2023-05-10T00:40:54.842Z,9.24
2023-05-10T00:50:57.276Z,9.13
2023-05-10T01:00:59.931Z,9.34
2023-05-10T01:11:02.374Z,9.54
2023-05-10T01:21:37.346Z,9.32
2023-05-10T01:31:58.221Z,9.42
2023-05-10T01:42:12.182Z,9.40
2023-05-10T01:52:20.521Z,9.51
2023-05-10T02:02:25.430Z,9.24
2023-05-10T02:12:29.905Z,9.36
2023-05-10T02:22:33.037Z,9.32
2023-05-10T02:32:36.627Z,9.17
2023-05-10T02:42:43.390Z,8.71
2023-05-10T02:52:49.295Z,7.95
2023-05-10T03:02:51.672Z,7.78
2023-05-10T03:13:20.318Z,7.20
2023-05-10T03:45:50.810Z,5.69
2023-05-10T03:55:53.062Z,6.03
2023-05-10T04:06:03.142Z,7.93
2023-05-10T04:16:06.113Z,8.30
2023-05-10T04:26:08.474Z,8.55
2023-05-10T04:36:11.107Z,9.74
2023-05-10T04:46:13.465Z,14.98
2023-05-10T04:56:16.063Z,15.26
2023-05-10T05:06:18.336Z,13.82
2023-05-10T05:16:20.712Z,12.70
2023-05-10T05:26:23.019Z,12.52
2023-05-10T05:36:25.616Z,12.53
2023-05-10T05:46:27.972Z,12.90
2023-05-10T05:56:30.287Z,15.56
2023-05-10T06:06:33.487Z,13.63
2023-05-10T06:16:36.119Z,13.58
2023-05-10T06:26:38.460Z,13.67
2023-05-10T06:36:40.754Z,14.00
2023-05-10T06:46:43.210Z,20.12
2023-05-10T06:56:45.584Z,16.73
2023-05-10T07:06:47.904Z,17.49
2023-05-10T07:16:50.622Z,22.37
2023-05-10T07:26:52.944Z,19.70
2023-05-10T07:36:55.470Z,27.37
2023-05-10T07:46:57.788Z,27.91
2023-05-10T07:57:01.285Z,28.88
2023-05-10T08:07:03.747Z,26.11
2023-05-10T08:17:06.432Z,21.92
2023-05-10T08:27:10.035Z,20.68
2023-05-10T08:37:14.560Z,19.26
2023-05-10T08:47:19.337Z,18.70
2023-05-10T08:57:21.870Z,17.55
2023-05-10T09:07:24.283Z,17.44
2023-05-10T09:17:28.371Z,17.42
2023-05-10T09:27:30.913Z,17.89
2023-05-10T09:37:33.276Z,17.88
2023-05-10T09:47:36.729Z,17.68
2023-05-10T09:57:39.963Z,17.92
2023-05-10T10:07:42.457Z,18.29
2023-05-10T10:17:45.122Z,18.10
2023-05-10T10:27:53.355Z,18.47
2023-05-10T10:37:55.695Z,18.98
2023-05-10T10:48:26.052Z,18.63
2023-05-10T10:58:33.209Z,19.21
2023-05-10T11:08:44.278Z,19.20
2023-05-10T11:19:00.853Z,19.23
2023-05-10T11:29:05.627Z,19.73
2023-05-10T11:39:08.016Z,20.01
2023-05-10T11:49:10.415Z,20.52
2023-05-10T11:59:16.234Z,20.43
2023-05-10T12:09:23.002Z,20.56
2023-05-10T12:19:40.903Z,19.89
2023-05-10T12:29:58.903Z,20.49
2023-05-10T12:40:01.389Z,20.36
2023-05-10T12:50:04.994Z,20.41
2023-05-10T13:00:08.115Z,19.86
2023-05-10T13:10:11.383Z,19.55
2023-05-10T13:20:13.850Z,19.67
2023-05-10T13:30:16.504Z,20.04
2023-05-10T13:40:19.036Z,20.60
2023-05-10T13:50:21.718Z,20.87
2023-05-10T14:00:24.105Z,20.70
2023-05-10T14:10:26.680Z,20.53
2023-05-10T14:20:29.049Z,20.31
2023-05-10T14:30:32.806Z,20.41
2023-05-10T14:40:35.639Z,20.45
2023-05-10T14:50:37.919Z,20.50
2023-05-10T15:00:42.043Z,20.58
2023-05-10T15:10:44.709Z,20.60
2023-05-10T15:20:47.007Z,20.59
2023-05-10T15:30:49.542Z,20.26
2023-05-10T15:40:51.821Z,20.25
2023-05-10T15:50:54.216Z,19.78
2023-05-10T16:00:56.539Z,19.52
2023-05-10T16:10:58.852Z,19.18
2023-05-10T16:21:02.153Z,18.82
2023-05-10T16:31:04.537Z,18.39
2023-05-10T16:41:07.032Z,18.10
2023-05-10T16:51:09.567Z,17.59
2023-05-10T17:01:12.376Z,16.94
2023-05-10T17:11:14.683Z,16.52
2023-05-10T17:21:17.262Z,16.43
2023-05-10T17:31:19.809Z,16.06
2023-05-10T17:41:22.530Z,15.69
2023-05-10T17:51:24.797Z,15.17
2023-05-10T18:01:27.157Z,14.74
2023-05-10T18:11:29.508Z,14.48
2023-05-10T18:21:31.810Z,13.73
2023-05-10T18:31:34.328Z,13.30
2023-05-10T18:41:36.985Z,12.57
2023-05-10T18:51:39.258Z,12.11
2023-05-10T19:01:41.923Z,11.53
2023-05-10T19:11:44.275Z,11.08
2023-05-10T19:21:48.839Z,10.59
2023-05-10T19:31:52.655Z,10.19
2023-05-10T19:41:55.145Z,9.90
2023-05-10T19:51:57.428Z,9.51
2023-05-10T20:01:59.730Z,9.39
2023-05-10T20:12:02.664Z,9.12
2023-05-10T20:22:05.589Z,8.92
2023-05-10T20:32:07.949Z,8.62
2023-05-10T20:42:10.334Z,8.39
2023-05-10T20:52:12.782Z,8.27
2023-05-10T21:02:15.051Z,8.06
2023-05-10T21:12:17.353Z,7.94
2023-05-10T21:22:19.627Z,7.80
2023-05-10T21:32:21.947Z,7.65
2023-05-10T21:42:24.267Z,7.42
2023-05-10T21:52:27.160Z,7.38
2023-05-10T22:10:10.552Z,7.18
2023-05-10T22:20:13.003Z,7.06
2023-05-10T22:30:15.759Z,6.99
2023-05-10T22:40:19.007Z,7.05
2023-05-10T22:50:21.775Z,6.90
2023-05-10T23:00:24.177Z,6.79
2023-05-10T23:10:27.012Z,6.82
2023-05-10T23:20:29.296Z,6.60
2023-05-10T23:30:31.968Z,6.68
2023-05-10T23:40:35.702Z,6.68
2023-05-10T23:50:37.978Z,6.52
